Dillon, MT

9:47 PM MST on November 18, 2019 (GMT -0700)
Barnett Ave | | Change Station

Elev 5036 ft 45.22 °N, 112.62 °W | Updated 2 minutes ago

Mostly Cloudy
Mostly Cloudy
41.5 °F
Feels Like 38 °F
N
4.7
Wind Variable Wind from SSW
Gusts 5.8 mph

Today
High -- | Low -- °F
--% Chance of Precip.
Yesterday
High -- | Low -- °F
Precip. -- in
Pressure 29.86 in
Visibility 10.0 miles
Clouds Scattered Clouds 12000 ft
Windchill 38 °F
Dew Point 30 °F
Humidity 64%
Rainfall 0.00 in
Snow Depth Not available.
7:32 AM 4:58 PM
Waning Gibbous, 58% visible
METAR KDLN 190353Z AUTO 21010KT 10SM SCT120 05/M02 A2986 RMK AO2 SLP111 T00501017
Pressure 29.86 in
Visibility 10.0 miles
Clouds Scattered Clouds 12000 ft
Windchill 38 °F
Dew Point 30 °F
Humidity 64%
Rainfall 0.00 in
Snow Depth Not available.
7:32 AM 4:58 PM
Waning Gibbous, 58% visible
METAR KDLN 190353Z AUTO 21010KT 10SM SCT120 05/M02 A2986 RMK AO2 SLP111 T00501017

Get Severe Weather Alerts

Thanks for signing up!

Be on the lookout for a verification email in your inbox.

You'll start receiving the daily forecast at 6 AM.

×

10-Day Weather Forecast

Almanac

Astronomy

Nov. 18, 2019 Rise Set
Actual Time
Civil Twilight
Nautical Twilight
Astronomical Twilight
Moon
Length of Visible Light
Length of Day
Tomorrow will be .
, % of the Moon is Illuminated

Today's Extremes

State Highs State Lows

Community

WunderPhotos

Category 6

Welcome to Category 6. This is the collective home for Weather Underground's featured writeups by Dr. Jeff Masters (right), Bob Henson (left), Chris Burt, and other regular contributors.

Nearby

Air Quality

  Air Quality AQ Index Pollutant
Not available.

Snow Depth

Station Depth Elevation

Earthquake Activity

City Distance Mag. Time & Date
Minimum magnitude displayed is 2.5.

Coastal Water Temperatures

Place Temperature

Stations

Nearby Weather Stations

Station Location Temp. Windchill Dew Point Humidity Wind Precip. Elev Updated Type
                   

Watches & Warnings

There are currently no watches in effect.